Waveland, Indiana
Current Conditions -  °F | °C
As of 12:55 AM on Tuesday 27 Jan 2015 (Local Time) from K4I7 Reporting Station
Light Snow Light Snow  
Wind Chill: 28°   Ceiling: 2200
Heat Index: 28°   Visibility: 3mi
Dew Point: 23°   Wind: 0mph
Humidity: 80%   Direction: NA
Pressure: 29.91"   Gusts: NA
Location:  39.88°N, 87.04°W
Report Text: K4I7 270555Z AUTO 00000KT 3SM -SN BKN022 OVC029 M02/M05 A2991 RMK AO2
Loading
Personal Weather Stations






























Interactive Weather Map New forecast layout! Learn more

10-Day Weather Forecast

Advertisements
Track Severe Weather on mobile